createdAt,value
2022-09-18T00:01:43.310Z,97976.80
2022-09-18T00:04:16.314Z,97970.60
2022-09-18T00:06:44.964Z,97974.00
2022-09-18T00:09:14.233Z,97971.80
2022-09-18T00:11:45.710Z,97976.00
2022-09-18T00:14:16.550Z,97974.60
2022-09-18T00:16:44.862Z,97977.80
2022-09-18T00:19:13.244Z,97974.60
2022-09-18T00:21:46.211Z,97978.40
2022-09-18T00:24:14.394Z,97978.00
2022-09-18T00:26:41.955Z,97979.00
2022-09-18T00:29:11.451Z,97978.80
2022-09-18T00:31:39.669Z,97985.20
2022-09-18T00:34:10.904Z,97985.40
2022-09-18T00:36:39.668Z,97984.80
2022-09-18T00:39:08.143Z,97978.60
2022-09-18T00:41:39.075Z,97982.20
2022-09-18T00:44:40.858Z,97982.20
2022-09-18T00:47:12.004Z,97982.60
2022-09-18T00:50:05.236Z,97990.00
2022-09-18T00:52:59.135Z,97986.40
2022-09-18T00:55:32.525Z,97989.60
2022-09-18T00:58:05.083Z,97990.80
2022-09-18T01:00:33.072Z,97985.60
2022-09-18T01:03:01.874Z,97988.40
2022-09-18T01:06:16.384Z,97989.00
2022-09-18T01:09:03.951Z,97988.80
2022-09-18T01:11:47.583Z,97985.40
2022-09-18T01:14:31.423Z,97978.00
2022-09-18T01:17:15.468Z,97970.00
2022-09-18T01:20:09.754Z,97970.20
2022-09-18T01:23:02.093Z,97972.60
2022-09-18T01:25:56.894Z,97977.60
2022-09-18T01:28:38.826Z,97975.60
2022-09-18T01:31:20.100Z,97975.20
2022-09-18T01:34:51.496Z,97980.80
2022-09-18T01:38:06.693Z,97981.20
2022-09-18T01:40:54.135Z,97978.60
2022-09-18T01:43:22.194Z,97976.60
2022-09-18T01:45:53.284Z,97974.20
2022-09-18T01:48:40.872Z,97971.60
2022-09-18T01:51:32.122Z,97968.20
2022-09-18T01:54:07.600Z,97974.60
2022-09-18T01:56:49.778Z,97970.40
2022-09-18T01:59:23.429Z,97966.00
2022-09-18T02:02:05.253Z,97965.40
2022-09-18T02:04:36.746Z,97963.20
2022-09-18T02:07:19.186Z,97958.60
2022-09-18T02:09:47.666Z,97956.80
2022-09-18T02:12:19.251Z,97956.40
2022-09-18T02:14:49.559Z,97951.00
2022-09-18T02:17:53.532Z,97956.40
2022-09-18T02:20:29.300Z,97956.60
2022-09-18T02:23:00.961Z,97951.00
2022-09-18T02:25:36.163Z,97950.20
2022-09-18T02:28:05.149Z,97953.60
2022-09-18T02:30:33.787Z,97949.60
2022-09-18T02:33:02.873Z,97952.60
2022-09-18T02:35:41.705Z,97953.80
2022-09-18T02:38:38.782Z,97951.40
2022-09-18T02:41:32.930Z,97953.00
2022-09-18T02:44:22.813Z,97956.20
2022-09-18T02:47:27.641Z,97958.40
2022-09-18T02:50:25.302Z,97959.00
2022-09-18T02:53:18.460Z,97958.60
2022-09-18T02:56:02.553Z,97960.80
2022-09-18T02:59:09.703Z,97953.80
2022-09-18T03:01:41.142Z,97954.60
2022-09-18T03:04:15.463Z,97954.80
2022-09-18T03:06:59.639Z,97954.00
2022-09-18T03:09:29.633Z,97955.00
2022-09-18T03:11:57.393Z,97955.40
2022-09-18T03:14:26.707Z,97961.00
2022-09-18T03:16:54.513Z,97953.80
2022-09-18T03:19:22.552Z,97958.40
2022-09-18T03:21:51.239Z,97958.00
2022-09-18T03:24:20.626Z,97960.20
2022-09-18T03:26:51.051Z,97951.00
2022-09-18T03:29:19.637Z,97952.60
2022-09-18T03:31:48.825Z,97953.40
2022-09-18T03:34:18.124Z,97954.40
2022-09-18T03:36:49.686Z,97951.00
2022-09-18T03:39:19.088Z,97947.20
2022-09-18T03:41:48.377Z,97948.20
2022-09-18T03:44:15.977Z,97957.80
2022-09-18T03:46:46.496Z,97952.60
2022-09-18T03:49:16.115Z,97954.20
2022-09-18T03:51:44.660Z,97950.80
2022-09-18T03:54:14.714Z,97947.00
2022-09-18T03:56:54.960Z,97949.80
2022-09-18T03:59:46.039Z,97949.00
2022-09-18T04:02:13.826Z,97948.40
2022-09-18T04:05:00.209Z,97950.20
2022-09-18T04:07:51.332Z,97957.60
2022-09-18T04:10:38.131Z,97959.60
2022-09-18T04:13:06.319Z,97960.00
2022-09-18T04:15:36.119Z,97960.20
2022-09-18T04:18:04.500Z,97965.20
2022-09-18T04:20:32.721Z,97961.00
2022-09-18T04:23:00.998Z,97960.20
2022-09-18T04:25:29.020Z,97964.80
2022-09-18T04:27:57.870Z,97974.40
2022-09-18T04:30:26.277Z,97968.00
2022-09-18T04:32:54.359Z,97977.60
2022-09-18T04:35:25.599Z,97978.60
2022-09-18T04:37:53.980Z,97982.80
2022-09-18T04:40:22.155Z,97982.80
2022-09-18T04:42:51.543Z,97985.00
2022-09-18T04:45:19.222Z,97992.00
2022-09-18T04:47:47.396Z,97992.00
2022-09-18T04:50:16.909Z,97990.20
2022-09-18T04:53:04.924Z,97994.60
2022-09-18T04:55:33.832Z,97997.40
2022-09-18T04:58:02.103Z,97997.40
2022-09-18T05:00:32.029Z,97999.40
2022-09-18T05:03:01.010Z,98008.20
2022-09-18T05:05:30.919Z,98007.20
2022-09-18T05:08:03.172Z,98010.00
2022-09-18T05:10:31.684Z,98008.60
2022-09-18T05:12:59.944Z,98014.00
2022-09-18T05:15:28.324Z,98011.00
2022-09-18T05:18:11.122Z,98005.20
2022-09-18T05:20:40.233Z,98012.60
2022-09-18T05:23:09.636Z,98013.40
2022-09-18T05:25:37.604Z,98012.20
2022-09-18T05:28:05.900Z,98010.60
2022-09-18T05:30:39.997Z,98019.60
2022-09-18T05:33:09.662Z,98013.80
2022-09-18T05:35:40.151Z,98013.20
2022-09-18T05:38:10.206Z,98015.80
2022-09-18T05:40:39.338Z,98019.40
2022-09-18T05:43:07.116Z,98015.20
2022-09-18T05:45:36.005Z,98010.60
2022-09-18T05:48:09.962Z,98009.20
2022-09-18T05:50:38.222Z,98012.00
2022-09-18T05:53:16.492Z,98011.20
2022-09-18T05:55:54.710Z,98012.40
2022-09-18T05:58:22.982Z,98012.40
2022-09-18T06:00:52.901Z,98008.00
2022-09-18T06:03:23.679Z,98010.20
2022-09-18T06:05:53.165Z,98010.40
2022-09-18T06:08:21.722Z,98010.20
2022-09-18T06:10:49.892Z,98010.00
2022-09-18T06:13:18.494Z,98009.40
2022-09-18T06:15:52.135Z,98011.00
2022-09-18T06:18:27.418Z,98008.00
2022-09-18T06:20:58.457Z,98013.00
2022-09-18T06:23:28.791Z,98009.00
2022-09-18T06:26:15.065Z,98006.80
2022-09-18T06:28:43.873Z,98006.40
2022-09-18T06:31:11.659Z,98006.00
2022-09-18T06:34:06.026Z,98013.00
2022-09-18T06:36:33.898Z,98016.40
2022-09-18T06:39:16.502Z,98014.20
2022-09-18T06:41:45.803Z,98007.20
2022-09-18T06:44:33.019Z,98013.40
2022-09-18T06:47:07.687Z,98016.00
2022-09-18T06:49:41.758Z,98013.00
2022-09-18T06:52:10.143Z,98011.80
2022-09-18T06:54:39.126Z,98010.80
2022-09-18T06:57:08.838Z,98010.20
2022-09-18T06:59:37.935Z,98009.80
2022-09-18T07:02:18.674Z,98022.40
2022-09-18T07:05:00.701Z,98022.00
2022-09-18T07:07:28.874Z,98019.20
2022-09-18T07:09:57.152Z,98015.20
2022-09-18T07:12:29.341Z,98013.20
2022-09-18T07:14:57.690Z,98008.60
2022-09-18T07:17:27.710Z,98010.20
2022-09-18T07:19:57.219Z,98008.60
2022-09-18T07:22:32.553Z,98016.60
2022-09-18T07:25:00.930Z,98016.20
2022-09-18T07:27:29.621Z,98024.20
2022-09-18T07:29:58.297Z,98029.40
2022-09-18T07:32:26.791Z,98028.40
2022-09-18T07:34:55.081Z,98029.80
2022-09-18T07:37:30.829Z,98022.20
2022-09-18T07:40:20.780Z,98022.80
2022-09-18T07:43:08.028Z,98023.60
2022-09-18T07:45:37.831Z,98020.20
2022-09-18T07:48:07.332Z,98027.20
2022-09-18T07:50:40.011Z,98028.60
2022-09-18T07:53:09.754Z,98028.40
2022-09-18T07:55:46.939Z,98031.20
2022-09-18T07:58:15.379Z,98029.40
2022-09-18T08:00:56.873Z,98028.40
2022-09-18T08:03:26.109Z,98028.00
2022-09-18T08:06:00.591Z,98031.00
2022-09-18T08:08:30.020Z,98037.40
2022-09-18T08:11:13.023Z,98032.20
2022-09-18T08:14:00.345Z,98035.00
2022-09-18T08:16:47.161Z,98029.20
2022-09-18T08:19:29.180Z,98029.40
2022-09-18T08:22:07.718Z,98030.20
2022-09-18T08:24:40.139Z,98035.40
2022-09-18T08:27:08.511Z,98031.20
2022-09-18T08:29:47.421Z,98032.00
2022-09-18T08:32:17.359Z,98033.80
2022-09-18T08:34:46.041Z,98035.40
2022-09-18T08:37:16.585Z,98036.20
2022-09-18T08:40:06.805Z,98040.80
2022-09-18T08:43:07.160Z,98042.60
2022-09-18T08:46:02.703Z,98040.20
2022-09-18T08:48:56.900Z,98039.00
2022-09-18T08:51:46.058Z,98037.40
2022-09-18T08:55:02.660Z,98039.60
2022-09-18T08:57:59.227Z,98039.00
2022-09-18T09:00:51.494Z,98038.40
2022-09-18T09:03:58.547Z,98037.00
2022-09-18T09:06:59.870Z,98037.80
2022-09-18T09:09:43.249Z,98042.60
2022-09-18T09:12:34.357Z,98038.20
2022-09-18T09:15:43.202Z,98038.40
2022-09-18T09:18:23.708Z,98034.80
2022-09-18T09:20:57.553Z,98036.80
2022-09-18T09:24:13.298Z,98031.80
2022-09-18T09:27:23.849Z,98029.20
2022-09-18T09:30:15.360Z,98027.80
2022-09-18T09:33:33.948Z,98026.20
2022-09-18T09:36:24.126Z,98028.20
2022-09-18T09:39:06.349Z,98034.00
2022-09-18T09:42:05.839Z,98029.00
2022-09-18T09:44:59.320Z,98026.40
2022-09-18T09:47:45.417Z,98030.00
2022-09-18T09:50:31.201Z,98034.80
2022-09-18T09:53:03.190Z,98035.00
2022-09-18T09:55:42.791Z,98031.40
2022-09-18T09:58:13.730Z,98041.40
2022-09-18T10:01:22.877Z,98040.20
2022-09-18T10:04:19.267Z,98036.40
2022-09-18T10:06:52.275Z,98040.40
2022-09-18T10:09:29.668Z,98040.40
2022-09-18T10:12:14.257Z,98039.80
2022-09-18T10:14:46.279Z,98043.00
2022-09-18T10:17:14.063Z,98042.20
2022-09-18T10:19:43.721Z,98048.00
2022-09-18T10:22:14.458Z,98048.20
2022-09-18T10:25:01.210Z,98046.20
2022-09-18T10:27:29.390Z,98055.60
2022-09-18T10:29:57.792Z,98057.40
2022-09-18T10:32:41.349Z,98059.00
2022-09-18T10:35:29.858Z,98061.00
2022-09-18T10:37:59.153Z,98059.40
2022-09-18T10:40:39.561Z,98064.80
2022-09-18T10:43:19.870Z,98062.80
2022-09-18T10:45:53.388Z,98057.40
2022-09-18T10:48:36.299Z,98061.40
2022-09-18T10:51:04.819Z,98055.00
2022-09-18T10:53:45.429Z,98053.00
2022-09-18T10:56:21.598Z,98059.60
2022-09-18T10:58:53.151Z,98053.40
2022-09-18T11:01:22.266Z,98055.00
2022-09-18T11:04:04.866Z,98049.60
2022-09-18T11:06:37.637Z,98048.20
2022-09-18T11:09:40.033Z,98044.40
2022-09-18T11:12:29.376Z,98046.80
2022-09-18T11:15:14.267Z,98049.00
2022-09-18T11:17:50.161Z,98052.40
2022-09-18T11:20:44.170Z,98051.00
2022-09-18T11:23:29.979Z,98054.60
2022-09-18T11:26:30.469Z,98056.00
2022-09-18T11:29:23.143Z,98055.00
2022-09-18T11:31:59.703Z,98061.80
2022-09-18T11:34:33.108Z,98055.20
2022-09-18T11:37:12.183Z,98059.40
2022-09-18T11:39:44.373Z,98059.40
2022-09-18T11:42:16.578Z,98054.20
2022-09-18T11:44:47.036Z,98055.80
2022-09-18T11:47:41.827Z,98058.60
2022-09-18T11:50:21.966Z,98061.20
2022-09-18T11:52:54.996Z,98062.00
2022-09-18T11:55:44.339Z,98057.80
2022-09-18T11:58:31.414Z,98057.40
2022-09-18T12:01:13.636Z,98057.20
2022-09-18T12:04:17.745Z,98054.20
2022-09-18T12:07:01.697Z,98059.00
2022-09-18T12:10:01.486Z,98061.80
2022-09-18T12:12:59.243Z,98065.60
2022-09-18T12:15:30.332Z,98072.80
2022-09-18T12:18:11.211Z,98069.20
2022-09-18T12:20:54.099Z,98074.60
2022-09-18T12:23:26.682Z,98070.80
2022-09-18T12:26:22.772Z,98077.60
2022-09-18T12:29:22.281Z,98071.60
2022-09-18T12:32:53.428Z,98082.00
2022-09-18T12:36:04.603Z,98077.40
2022-09-18T12:39:01.064Z,98080.00
2022-09-18T12:41:38.189Z,98083.60
2022-09-18T12:44:45.322Z,98079.00
2022-09-18T12:47:41.300Z,98083.40
2022-09-18T12:50:12.433Z,98083.40
2022-09-18T12:53:09.986Z,98081.80
2022-09-18T12:56:17.011Z,98082.00
2022-09-18T12:59:12.888Z,98081.80
2022-09-18T13:01:51.806Z,98077.20
2022-09-18T13:04:30.334Z,98074.40
2022-09-18T13:07:35.562Z,98074.80
2022-09-18T13:10:38.979Z,98067.60
2022-09-18T13:13:43.824Z,98072.20
2022-09-18T13:16:23.075Z,98070.20
2022-09-18T13:19:16.403Z,98074.00
2022-09-18T13:21:44.380Z,98071.40
2022-09-18T13:24:18.681Z,98076.00
2022-09-18T13:26:47.675Z,98080.40
2022-09-18T13:29:53.439Z,98073.20
2022-09-18T13:32:40.023Z,98070.60
2022-09-18T13:35:21.420Z,98069.20
2022-09-18T13:37:49.563Z,98073.00
2022-09-18T13:40:57.133Z,98070.60
2022-09-18T13:43:28.117Z,98081.80
2022-09-18T13:46:04.681Z,98078.80
2022-09-18T13:48:45.758Z,98087.20
2022-09-18T13:51:29.534Z,98083.80
2022-09-18T13:54:28.894Z,98085.80
2022-09-18T13:57:14.831Z,98088.20
2022-09-18T14:00:05.997Z,98090.00
2022-09-18T14:02:40.748Z,98088.20
2022-09-18T14:05:33.325Z,98096.80
2022-09-18T14:08:04.154Z,98096.20
2022-09-18T14:11:05.403Z,98093.00
2022-09-18T14:13:54.096Z,98093.40
2022-09-18T14:16:23.560Z,98094.00
2022-09-18T14:19:04.717Z,98107.00
2022-09-18T14:21:42.810Z,98103.20
2022-09-18T14:24:25.264Z,98104.40
2022-09-18T14:27:02.551Z,98105.80
2022-09-18T14:29:32.658Z,98104.80
2022-09-18T14:32:01.494Z,98108.40
2022-09-18T14:34:44.017Z,98110.00
2022-09-18T14:37:32.738Z,98109.80
2022-09-18T14:40:01.065Z,98110.60
2022-09-18T14:42:38.382Z,98110.20
2022-09-18T14:45:30.637Z,98110.20
2022-09-18T14:47:58.651Z,98119.80
2022-09-18T14:50:37.163Z,98127.00
2022-09-18T14:53:46.955Z,98131.40
2022-09-18T14:56:18.422Z,98138.60
2022-09-18T14:58:47.596Z,98142.20
2022-09-18T15:01:25.563Z,98141.60
2022-09-18T15:03:55.107Z,98144.80
2022-09-18T15:06:56.123Z,98149.60
2022-09-18T15:09:32.545Z,98150.00
2022-09-18T15:12:03.144Z,98155.80
2022-09-18T15:14:42.783Z,98155.80
2022-09-18T15:17:22.492Z,98155.20
2022-09-18T15:20:15.977Z,98157.60
2022-09-18T15:22:44.350Z,98154.40
2022-09-18T15:25:13.671Z,98153.60
2022-09-18T15:27:42.836Z,98163.20
2022-09-18T15:30:21.832Z,98166.20
2022-09-18T15:33:01.691Z,98165.80
2022-09-18T15:35:36.996Z,98167.60
2022-09-18T15:38:17.858Z,98170.40
2022-09-18T15:40:46.111Z,98171.20
2022-09-18T15:43:33.658Z,98171.20
2022-09-18T15:46:06.132Z,98173.60
2022-09-18T15:48:41.685Z,98167.60
2022-09-18T15:51:26.335Z,98167.00
2022-09-18T15:54:11.872Z,98168.00
2022-09-18T15:56:49.615Z,98165.00
2022-09-18T15:59:32.488Z,98166.80
2022-09-18T16:02:21.160Z,98165.00
2022-09-18T16:04:48.756Z,98170.20
2022-09-18T16:07:26.981Z,98170.00
2022-09-18T16:09:54.981Z,98173.40
2022-09-18T16:12:32.518Z,98176.00
2022-09-18T16:15:08.073Z,98183.20
2022-09-18T16:17:46.234Z,98184.80
2022-09-18T16:20:25.645Z,98183.00
2022-09-18T16:23:03.062Z,98183.60
2022-09-18T16:25:31.172Z,98186.00
2022-09-18T16:27:59.243Z,98184.00
2022-09-18T16:30:27.927Z,98178.40
2022-09-18T16:33:24.376Z,98177.20
2022-09-18T16:36:00.987Z,98174.40
2022-09-18T16:38:29.614Z,98175.00
2022-09-18T16:40:58.204Z,98175.00
2022-09-18T16:43:26.166Z,98178.00
2022-09-18T16:45:55.094Z,98174.20
2022-09-18T16:48:23.955Z,98173.00
2022-09-18T16:50:52.342Z,98171.00
2022-09-18T16:53:20.507Z,98175.20
2022-09-18T16:55:51.882Z,98174.40
2022-09-18T16:58:19.506Z,98175.80
2022-09-18T17:00:47.366Z,98179.00
2022-09-18T17:03:15.508Z,98175.00
2022-09-18T17:05:44.024Z,98177.60
2022-09-18T17:08:12.049Z,98171.40
2022-09-18T17:10:43.228Z,98173.40
2022-09-18T17:13:13.661Z,98174.80
2022-09-18T17:15:41.744Z,98177.40
2022-09-18T17:18:09.916Z,98173.00
2022-09-18T17:20:39.288Z,98175.00
2022-09-18T17:23:07.398Z,98177.40
2022-09-18T17:25:37.012Z,98178.20
2022-09-18T17:28:05.477Z,98180.00
2022-09-18T17:30:33.966Z,98175.80
2022-09-18T17:33:02.920Z,98179.20
2022-09-18T17:35:30.819Z,98183.20
2022-09-18T17:37:58.960Z,98182.00
2022-09-18T17:40:27.442Z,98181.40
2022-09-18T17:42:55.538Z,98181.20
2022-09-18T17:45:23.620Z,98183.80
2022-09-18T17:47:53.429Z,98185.00
2022-09-18T17:50:22.522Z,98187.00
2022-09-18T17:52:50.800Z,98193.40
2022-09-18T17:55:19.061Z,98191.00
2022-09-18T17:57:47.376Z,98188.60
2022-09-18T18:00:16.665Z,98187.00
2022-09-18T18:02:45.180Z,98193.20
2022-09-18T18:05:14.085Z,98196.20
2022-09-18T18:07:43.410Z,98195.40
2022-09-18T18:10:11.191Z,98196.20
2022-09-18T18:12:39.150Z,98195.60
2022-09-18T18:15:08.221Z,98195.80
2022-09-18T18:17:36.007Z,98194.80
2022-09-18T18:20:05.410Z,98195.00
2022-09-18T18:22:33.279Z,98198.20
2022-09-18T18:25:01.562Z,98194.20
2022-09-18T18:27:29.942Z,98193.00
2022-09-18T18:29:58.852Z,98192.20
2022-09-18T18:32:27.047Z,98193.80
2022-09-18T18:34:55.386Z,98192.00
2022-09-18T18:37:23.348Z,98194.80
2022-09-18T18:39:51.348Z,98192.20
2022-09-18T18:42:18.967Z,98192.40
2022-09-18T18:44:46.948Z,98196.60
2022-09-18T18:47:17.594Z,98192.40
2022-09-18T18:49:46.050Z,98195.80
2022-09-18T18:52:13.926Z,98193.40
2022-09-18T18:54:42.217Z,98193.80
2022-09-18T18:57:11.196Z,98193.20
2022-09-18T18:59:39.168Z,98196.40
2022-09-18T19:02:08.763Z,98199.20
2022-09-18T19:04:38.087Z,98199.00
2022-09-18T19:07:09.733Z,98194.40
2022-09-18T19:09:37.997Z,98196.60
2022-09-18T19:12:06.484Z,98193.80
2022-09-18T19:14:37.623Z,98196.80
2022-09-18T19:17:06.009Z,98197.40
2022-09-18T19:19:34.580Z,98193.60
2022-09-18T19:22:02.859Z,98191.80
2022-09-18T19:24:30.728Z,98194.80
2022-09-18T19:26:59.754Z,98196.60
2022-09-18T19:29:28.744Z,98199.80
2022-09-18T19:31:57.617Z,98198.60
2022-09-18T19:34:25.675Z,98196.00
2022-09-18T19:36:55.998Z,98199.20
2022-09-18T19:39:24.752Z,98202.20
2022-09-18T19:42:22.655Z,98198.00
2022-09-18T19:44:53.227Z,98198.60
2022-09-18T19:47:24.325Z,98196.80
2022-09-18T19:49:53.429Z,98200.40
2022-09-18T19:52:23.559Z,98202.60
2022-09-18T19:54:52.943Z,98200.60
2022-09-18T19:57:21.016Z,98205.60
2022-09-18T19:59:55.022Z,98206.20
2022-09-18T20:02:24.064Z,98202.60
2022-09-18T20:04:52.292Z,98199.60
2022-09-18T20:07:20.207Z,98202.80
2022-09-18T20:09:48.239Z,98207.40
2022-09-18T20:12:16.329Z,98200.20
2022-09-18T20:14:44.814Z,98198.60
2022-09-18T20:17:12.658Z,98200.80
2022-09-18T20:19:40.838Z,98200.40
2022-09-18T20:22:09.099Z,98200.80
2022-09-18T20:24:36.869Z,98197.20
2022-09-18T20:27:05.139Z,98200.00
2022-09-18T20:29:34.135Z,98198.20
2022-09-18T20:32:02.618Z,98206.40
2022-09-18T20:34:30.899Z,98199.20
2022-09-18T20:37:00.334Z,98199.40
2022-09-18T20:39:28.463Z,98200.00
2022-09-18T20:42:00.941Z,98199.20
2022-09-18T20:44:29.218Z,98199.80
2022-09-18T20:46:57.886Z,98201.20
2022-09-18T20:49:26.170Z,98200.60
2022-09-18T20:51:54.445Z,98196.20
2022-09-18T20:54:22.726Z,98199.00
2022-09-18T20:56:50.803Z,98199.80
2022-09-18T20:59:19.049Z,98201.80
2022-09-18T21:01:47.309Z,98203.00
2022-09-18T21:04:19.056Z,98197.00
2022-09-18T21:06:55.708Z,98201.60
2022-09-18T21:09:26.230Z,98199.60
2022-09-18T21:11:54.567Z,98200.40
2022-09-18T21:14:23.826Z,98201.20
2022-09-18T21:16:55.751Z,98198.00
2022-09-18T21:19:28.327Z,98202.40
2022-09-18T21:21:57.106Z,98201.20
2022-09-18T21:24:25.903Z,98196.80
2022-09-18T21:26:53.456Z,98195.60
2022-09-18T21:29:24.843Z,98206.60
2022-09-18T21:31:57.733Z,98207.00
2022-09-18T21:34:30.950Z,98209.00
2022-09-18T21:37:01.887Z,98208.60
2022-09-18T21:39:30.822Z,98205.00
2022-09-18T21:41:59.703Z,98209.00
2022-09-18T21:44:29.758Z,98205.60
2022-09-18T21:47:03.362Z,98202.00
2022-09-18T21:49:32.014Z,98207.20
2022-09-18T21:52:07.830Z,98201.40
2022-09-18T21:54:35.932Z,98197.20
2022-09-18T21:57:04.412Z,98208.00
2022-09-18T21:59:36.579Z,98201.80
2022-09-18T22:02:05.367Z,98201.60
2022-09-18T22:04:33.846Z,98206.00
2022-09-18T22:07:02.337Z,98200.20
2022-09-18T22:09:38.487Z,98204.60
2022-09-18T22:12:07.609Z,98200.40
2022-09-18T22:14:38.119Z,98206.40
2022-09-18T22:17:07.111Z,98199.60
2022-09-18T22:19:38.075Z,98199.60
2022-09-18T22:22:09.084Z,98195.80
2022-09-18T22:24:38.146Z,98200.40
2022-09-18T22:27:08.683Z,98193.80
2022-09-18T22:29:41.178Z,98197.00
2022-09-18T22:32:10.688Z,98196.40
2022-09-18T22:34:39.022Z,98189.80
2022-09-18T22:37:07.862Z,98191.60
2022-09-18T22:39:35.824Z,98194.60
2022-09-18T22:42:04.103Z,98189.40
2022-09-18T22:44:32.067Z,98194.60
2022-09-18T22:47:00.380Z,98188.40
2022-09-18T22:49:28.423Z,98192.20
2022-09-18T22:51:59.733Z,98182.20
2022-09-18T22:54:31.252Z,98187.40
2022-09-18T22:57:01.538Z,98183.40
2022-09-18T22:59:29.610Z,98183.20
2022-09-18T23:02:03.454Z,98184.60
2022-09-18T23:04:33.186Z,98184.40
2022-09-18T23:07:01.714Z,98187.60
2022-09-18T23:09:29.775Z,98182.60
2022-09-18T23:11:57.850Z,98182.40
2022-09-18T23:14:28.065Z,98179.60
2022-09-18T23:16:56.677Z,98182.60
2022-09-18T23:19:32.722Z,98177.80
2022-09-18T23:22:00.582Z,98183.40
2022-09-18T23:24:29.520Z,98176.00
2022-09-18T23:26:57.951Z,98177.00
2022-09-18T23:29:27.361Z,98178.00
2022-09-18T23:31:58.652Z,98176.80
2022-09-18T23:34:31.679Z,98175.80
2022-09-18T23:36:59.967Z,98169.20
2022-09-18T23:39:33.294Z,98168.40
2022-09-18T23:42:02.363Z,98167.40
2022-09-18T23:44:31.357Z,98169.00
2022-09-18T23:46:59.767Z,98169.20
2022-09-18T23:49:28.515Z,98170.20
2022-09-18T23:51:56.942Z,98169.60
2022-09-18T23:54:27.795Z,98172.40
2022-09-18T23:56:57.365Z,98172.80
2022-09-18T23:59:26.217Z,98164.20
